UKBBUUOO

Guest
Details From UKBB - Boryspil
To UUOO - Chertovitskoye
Flight Number -
Tags Generated
Created
Modified
Stats Distance 326 nm / 604 km
Max Altitude 0 ft / 0 m
Waypoints 3
Social Downloads 0
Likes 0
Share VATSIM

Download

Looking for another format? Having issues loading an existing format? Contact us
Advertisement - Login to hide

Notes

Generated

Route

UKBB WR UUOO

ID Type Via Altitude Latitude Longitude Leg Dist Tot Dist Heading (true) Name
O UKBB APT - 0 ft / 0 m 50.36056˚ 30.90660˚ - 0 nm - -
WR NDB - 0 ft / 0 m 51.84500˚ 39.17667˚ 324 nm 324 nm 71° / 77° VORONEZH NDB
O UUOO APT - 0 ft / 0 m 51.82095˚ 39.21699˚ 2 nm 326 nm 134° / 134° -

Altitude Profile

Advertisement - Login to hide

Weather


0- 5 10 15 20 25 30 35+ Temperature / ° C

Clouds and Precipitation
Forecast for 2017-12-14 00:00 UTC. Updated 2 hours ago

Ground ~20,000 ft ~40,000 ft Winds

UKBB

Details ICAO UKBB (KBP)
Name Boryspil
Region Ukraine
Timezone Europe/Kiev (UTC+2.0)
Stats Elevation 421 ft / 128 m (AMSL)
Location 50.339472° 30.892903°
Runways 2
Magnetic Variation 7.669° E

METAR

UKBB 132030Z 35003MPS 4600 -SN BKN003 OVC010 00/00 Q1013 R88/290050 NOSIG

Decode

TAF

TAF TAF UKBB 131706Z 1318/1418 36006G11MPS 3000 -SN BR OVC004 TEMPO 1318/1406 1000 SHSN BR BKN001 BKN014CB PROB40 TEMPO 1318/1322 -FZRASN BECMG 1406/1409 22003G08MPS 6000 NSW BKN010 TX01/1412Z TNM01/1405Z

Decode

Departure Runways

ID Width Length Bearing (true) Bearing (mag) Surface Threshold Offset Overrun Length
18L 197 ft / 60 m 13,152 ft / 4,009 m 182.72° 175.05° Concrete 0 ft / 0 m 295 ft / 90 m
18R 207 ft / 63 m 11,470 ft / 3,496 m 182.62° 174.95° Concrete 0 ft / 0 m 164 ft / 50 m
36L 207 ft / 63 m 11,470 ft / 3,496 m 2.62° 354.95° Concrete 0 ft / 0 m 164 ft / 50 m
36R 197 ft / 60 m 13,152 ft / 4,009 m 2.72° 355.05° Concrete 0 ft / 0 m 295 ft / 90 m

UUOO

Details ICAO UUOO (VOZ)
Name CHERTOVITSKOYE
Region Russia
Timezone Europe/Moscow (UTC+3.0)
Stats Elevation 514 ft / 157 m (AMSL)
Location 51.814211° 39.229588°
Runways 1
Magnetic Variation 9.739° E

METAR

UUOO 132030Z 17003MPS 1300 R30/P2000D BR OVC003 06/05 Q1013 R30/190055 TEMPO 0500 FG VV002 RMK QFE746

Decode

TAF

Not found

Destination Runways

ID Width Length Bearing (true) Bearing (mag) Surface Threshold Offset Overrun Length
13 161 ft / 49 m 7,516 ft / 2,291 m 130.86° 121.12° Concrete 230 ft / 70 m 0 ft / 0 m
31 161 ft / 49 m 7,516 ft / 2,291 m 310.88° 301.14° Concrete 203 ft / 62 m 0 ft / 0 m

Approach Navaids

Runway Type Ident Frequency Range Bearing (true) Bearing (mag) Slope Elevation
13 Localiser IWR 110.50 MHz 18 nm / 33 km 129.47° 119.73° - 514 ft / 157 m (AMSL)
13 Glidescope IWR 110.50 MHz 10 nm / 19 km 130.88° 121.14° 2.70° 514 ft / 157 m (AMSL)
31 Localiser IAP 111.90 MHz 18 nm / 33 km 311.64° 301.90° - 514 ft / 157 m (AMSL)
31 Glidescope IAP 111.90 MHz 10 nm / 19 km 310.88° 301.14° 2.70° 514 ft / 157 m (AMSL)

Popular Alternatives